Miami, FL

3:04 PM EDT on September 02, 2014 (GMT -0400)
Kendall-Tamiami Executive | Change Station
CLOSE
Current Station
Airport
Location: Kendall,
Elevation: 10 ft
Nearby Weather Stations

Elev 10 ft 25.64 °N, 80.43 °W | Updated 11 minutes ago

Partly Cloudy
Partly Cloudy
91 °F
Feels Like 99 °F
N
14
Wind Variable Wind from SE

Today
High -- | Low -- °F
--% Chance of Precip.
Yesterday
High -- | Low -- °F
Precip. -- in
7:02 AM 7:39 PM
First Quarter, 54% visible
Pressure 30.02 in
Visibility 10.0 miles
Clouds Few 3800 ft
Heat Index 99 °F
Dew Point 73 °F
Humidity 55%
Rainfall 0.00 in
Snow Depth Not available.
UV 12 out of 12
Pollen 4.20 out of 12
PM2.5 Good
Flu Activity Not available.
METAR KTMB 021853Z 14012KT 10SM FEW038 33/23 A3002 RMK AO2 SLP166 T03280228

More Conditions Fewer Conditions

Pressure 30.02 in
Visibility 10.0 miles
Clouds Few 3800 ft
Heat Index 99 °F
Dew Point 73 °F
Humidity 55%
Rainfall 0.00 in
Snow Depth Not available.
UV 12 out of 12
Pollen 4.20 out of 12
PM2.5 Good
Flu Activity Not available.
METAR KTMB 021853Z 14012KT 10SM FEW038 33/23 A3002 RMK AO2 SLP166 T03280228

More Conditions Fewer Conditions

Nowcast | as of 12:54 PM EDT on September 2, 2014

Widely dispersed showers will continue to move westward across the Atlantic waters. These showers will produce brief downpours and gusty winds to near 25 knots. Showers will also affect the Atlantic coast Metro areas from time to time. An occasional lightning strike is possible with this activity.

×

10-Day Weather Forecast

Almanac

Astronomy

Sep. 02, 2014 Rise Set
Actual Time 7:02 AM EDT 7:39 PM EDT
Civil Twilight 6:39 AM EDT 8:03 PM EDT
Nautical Twilight 6:11 AM EDT 8:30 PM EDT
Astronomical Twilight 5:44 AM EDT 8:58 PM EDT
Moon 2:03 PM EDT 12:20 AM EDT
Length of Visible Light 13h 23m
Length of Day
12h 37m
Tomorrow will be 1m 27s shorter.
First Quarter, 54% of the Moon is Illuminated
Today
First Quarter
Sep 8
Full
Sep 15
Last Quarter
Sep 24
New
Oct 1
First Quarter

Today's Extremes

State Highs State Lows

Community

WunderPhotos

Upload Photos

1,749,745 photos uploaded!

WunderBlogs® & News

By Dr. Jeff Masters
Director of Meteorology, Weather Underground
By Kari Strenfel
Meteorologist, Weather Underground
By Christopher C. Burt
Weather Historian, Weather Underground
September 2, 2014
September 2, 2014
September 2, 2014

Nearby

Air Quality

  Air Quality AQ Index Pollutant
Yesterday Good
PM2.5
Yesterday Good
OZONE
Current Good
PM2.5
Tuesday Moderate
PM2.5
Tuesday Good
OZONE
Wednesday Good
OZONE
Wednesday Good
PM2.5

Snow Depth

Station Depth Elevation
No new snow has been reported.

Earthquake Activity

City Distance Mag. Time & Date
No recent earthquake activity has been reported nearby.
Minimum magnitude displayed is 2.5.

Coastal Water Temperatures

Place Temperature
Virginia Key, FL 88.0 °F

Nearby Weather Stations